createdAt,value
2023-01-13T00:01:55.100Z,9.29
2023-01-13T00:04:26.080Z,9.29
2023-01-13T00:06:56.489Z,9.29
2023-01-13T00:09:27.054Z,9.29
2023-01-13T00:11:57.815Z,9.29
2023-01-13T00:14:30.181Z,9.31
2023-01-13T00:17:00.536Z,9.32
2023-01-13T00:19:31.254Z,9.32
2023-01-13T00:22:01.584Z,9.32
2023-01-13T00:24:32.165Z,9.33
2023-01-13T00:27:03.045Z,9.33
2023-01-13T00:29:33.433Z,9.32
2023-01-13T00:32:03.929Z,9.33
2023-01-13T00:34:34.644Z,9.33
2023-01-13T00:37:05.484Z,9.30
2023-01-13T00:39:35.802Z,9.29
2023-01-13T00:42:23.797Z,9.28
2023-01-13T00:44:54.292Z,9.27
2023-01-13T00:47:24.721Z,9.26
2023-01-13T00:49:56.229Z,9.27
2023-01-13T00:52:27.277Z,9.25
2023-01-13T00:54:57.900Z,9.26
2023-01-13T00:57:28.271Z,9.28
2023-01-13T00:59:58.721Z,9.28
2023-01-13T01:02:29.430Z,9.29
2023-01-13T01:05:01.048Z,9.28
2023-01-13T01:07:31.964Z,9.28
2023-01-13T01:10:02.567Z,9.27
2023-01-13T01:12:32.965Z,9.27
2023-01-13T01:15:06.029Z,9.26
2023-01-13T01:17:36.416Z,9.25
2023-01-13T01:20:07.911Z,9.23
2023-01-13T01:22:38.274Z,9.21
2023-01-13T01:25:10.340Z,9.21
2023-01-13T01:27:41.125Z,9.21
2023-01-13T01:30:14.628Z,9.19
2023-01-13T01:32:44.995Z,9.18
2023-01-13T01:35:15.404Z,9.18
2023-01-13T01:37:46.076Z,9.18
2023-01-13T01:40:16.910Z,9.20
2023-01-13T01:43:05.164Z,9.21
2023-01-13T01:45:36.137Z,9.22
2023-01-13T01:48:08.271Z,9.22
2023-01-13T01:50:40.716Z,9.22
2023-01-13T01:53:16.508Z,9.23
2023-01-13T01:55:47.437Z,9.24
2023-01-13T01:58:21.233Z,9.25
2023-01-13T02:00:52.056Z,9.25
2023-01-13T02:03:23.081Z,9.26
2023-01-13T02:05:54.643Z,9.26
2023-01-13T02:08:25.124Z,9.25
2023-01-13T02:10:56.697Z,9.24
2023-01-13T02:13:27.758Z,9.23
2023-01-13T02:16:08.727Z,9.23
2023-01-13T02:18:55.570Z,9.23
2023-01-13T02:21:50.006Z,9.24
2023-01-13T02:24:55.702Z,9.23
2023-01-13T02:27:53.932Z,9.24
2023-01-13T02:30:50.967Z,9.25
2023-01-13T02:33:33.299Z,9.26
2023-01-13T02:36:10.892Z,9.26
2023-01-13T02:38:50.939Z,9.26
2023-01-13T02:41:45.678Z,9.27
2023-01-13T02:44:22.246Z,9.27
2023-01-13T02:46:58.715Z,9.27
2023-01-13T02:49:35.569Z,9.25
2023-01-13T02:52:12.622Z,9.23
2023-01-13T02:54:48.923Z,9.21
2023-01-13T02:57:21.677Z,9.21
2023-01-13T02:59:54.172Z,9.21
2023-01-13T03:02:26.424Z,9.21
2023-01-13T03:04:59.799Z,9.22
2023-01-13T03:07:53.402Z,9.22
2023-01-13T03:10:33.252Z,9.24
2023-01-13T03:13:13.694Z,9.25
2023-01-13T03:15:53.841Z,9.26
2023-01-13T03:18:37.059Z,9.27
2023-01-13T03:21:14.738Z,9.28
2023-01-13T03:23:51.964Z,9.28
2023-01-13T03:26:30.666Z,9.30
2023-01-13T03:29:08.280Z,9.30
2023-01-13T03:31:45.264Z,9.30
2023-01-13T03:34:18.543Z,9.29
2023-01-13T03:36:54.176Z,9.25
2023-01-13T03:39:30.925Z,9.26
2023-01-13T03:42:06.714Z,9.24
2023-01-13T03:44:43.793Z,9.23
2023-01-13T03:47:21.589Z,9.22
2023-01-13T03:49:58.195Z,9.19
2023-01-13T03:52:33.462Z,9.18
2023-01-13T03:55:08.865Z,9.16
2023-01-13T03:57:43.992Z,9.15
2023-01-13T04:00:16.961Z,9.14
2023-01-13T04:02:54.423Z,9.13
2023-01-13T04:05:26.009Z,9.13
2023-01-13T04:08:02.601Z,9.13
2023-01-13T04:10:36.081Z,9.13
2023-01-13T04:13:12.967Z,9.11
2023-01-13T04:15:46.074Z,9.07
2023-01-13T04:18:19.086Z,9.09
2023-01-13T04:20:51.711Z,9.07
2023-01-13T04:23:23.172Z,9.05
2023-01-13T04:25:54.538Z,9.04
2023-01-13T04:28:26.174Z,9.03
2023-01-13T04:30:56.552Z,9.03
2023-01-13T04:33:27.365Z,9.01
2023-01-13T04:35:58.073Z,8.98
2023-01-13T04:38:28.424Z,8.94
2023-01-13T04:40:58.992Z,8.90
2023-01-13T04:43:29.991Z,8.88
2023-01-13T04:46:00.772Z,8.84
2023-01-13T04:48:31.536Z,8.82
2023-01-13T04:51:02.022Z,8.81
2023-01-13T04:53:32.584Z,8.82
2023-01-13T04:56:03.014Z,8.82
2023-01-13T04:58:33.751Z,8.82
2023-01-13T05:01:04.165Z,8.82
2023-01-13T05:03:34.910Z,8.82
2023-01-13T05:06:05.510Z,8.82
2023-01-13T05:08:36.185Z,8.80
2023-01-13T05:11:26.695Z,8.77
2023-01-13T05:14:14.549Z,8.74
2023-01-13T05:17:01.754Z,8.70
2023-01-13T05:19:34.173Z,8.66
2023-01-13T05:22:22.761Z,8.62
2023-01-13T05:25:11.223Z,8.60
2023-01-13T05:27:41.583Z,8.58
2023-01-13T05:30:13.664Z,8.58
2023-01-13T05:32:43.992Z,8.59
2023-01-13T05:35:15.997Z,8.60
2023-01-13T05:37:48.082Z,8.60
2023-01-13T05:40:38.104Z,8.60
2023-01-13T05:43:24.657Z,8.56
2023-01-13T05:45:59.240Z,8.54
2023-01-13T05:48:31.457Z,8.49
2023-01-13T05:51:02.432Z,8.46
2023-01-13T05:53:32.846Z,8.44
2023-01-13T05:56:05.331Z,8.40
2023-01-13T05:58:36.105Z,8.38
2023-01-13T06:01:08.582Z,8.36
2023-01-13T06:03:39.428Z,8.33
2023-01-13T06:06:10.191Z,8.29
2023-01-13T06:08:40.882Z,8.26
2023-01-13T06:11:11.758Z,8.24
2023-01-13T06:13:42.468Z,8.20
2023-01-13T06:16:12.914Z,8.17
2023-01-13T06:18:43.240Z,8.14
2023-01-13T06:21:13.888Z,8.11
2023-01-13T06:23:44.888Z,8.08
2023-01-13T06:26:18.618Z,8.05
2023-01-13T06:28:49.952Z,8.02
2023-01-13T06:31:21.008Z,7.97
2023-01-13T06:33:56.761Z,7.95
2023-01-13T06:36:32.273Z,7.93
2023-01-13T06:39:05.087Z,7.91
2023-01-13T06:41:53.469Z,7.90
2023-01-13T06:44:25.316Z,7.89
2023-01-13T06:46:55.699Z,7.88
2023-01-13T06:49:26.234Z,7.89
2023-01-13T06:51:56.873Z,7.90
2023-01-13T06:54:27.934Z,7.92
2023-01-13T06:56:58.615Z,7.93
2023-01-13T06:59:29.031Z,7.95
2023-01-13T07:01:59.929Z,7.97
2023-01-13T07:04:30.907Z,7.97
2023-01-13T07:07:01.581Z,7.99
2023-01-13T07:09:32.306Z,8.01
2023-01-13T07:12:02.684Z,8.02
2023-01-13T07:14:50.532Z,8.03
2023-01-13T07:17:25.503Z,8.03
2023-01-13T07:19:55.926Z,8.04
2023-01-13T07:22:26.566Z,8.03
2023-01-13T07:24:58.036Z,8.02
2023-01-13T07:27:28.357Z,8.01
2023-01-13T07:29:58.671Z,7.99
2023-01-13T07:32:29.326Z,7.98
2023-01-13T07:35:04.853Z,7.97
2023-01-13T07:37:37.985Z,7.94
2023-01-13T07:40:10.757Z,7.93
2023-01-13T07:42:58.597Z,7.90
2023-01-13T07:45:29.010Z,7.88
2023-01-13T07:47:59.459Z,7.85
2023-01-13T07:50:30.097Z,7.82
2023-01-13T07:53:01.847Z,7.79
2023-01-13T07:55:32.541Z,7.76
2023-01-13T07:58:03.834Z,7.75
2023-01-13T08:00:34.503Z,7.72
2023-01-13T08:03:05.016Z,7.71
2023-01-13T08:05:37.156Z,7.70
2023-01-13T08:08:08.257Z,7.66
2023-01-13T08:10:38.659Z,7.66
2023-01-13T08:13:19.961Z,7.65
2023-01-13T08:15:52.112Z,7.65
2023-01-13T08:18:24.060Z,7.65
2023-01-13T08:20:55.023Z,7.66
2023-01-13T08:23:25.857Z,7.69
2023-01-13T08:25:56.250Z,7.73
2023-01-13T08:28:27.091Z,7.76
2023-01-13T08:30:59.620Z,7.80
2023-01-13T08:33:30.662Z,7.85
2023-01-13T08:36:03.659Z,7.89
2023-01-13T08:38:35.365Z,7.93
2023-01-13T08:41:11.464Z,7.96
2023-01-13T08:43:42.092Z,8.00
2023-01-13T08:46:13.077Z,8.04
2023-01-13T08:48:43.454Z,8.08
2023-01-13T08:51:14.172Z,8.11
2023-01-13T08:53:44.528Z,8.15
2023-01-13T08:56:16.923Z,8.17
2023-01-13T08:58:47.423Z,8.20
2023-01-13T09:01:21.295Z,8.22
2023-01-13T09:03:51.989Z,8.23
2023-01-13T09:06:22.964Z,8.24
2023-01-13T09:08:53.299Z,8.25
2023-01-13T09:11:52.742Z,8.26
2023-01-13T09:14:24.969Z,8.26
2023-01-13T09:16:55.697Z,8.27
2023-01-13T09:19:26.967Z,8.27
2023-01-13T09:21:58.276Z,8.29
2023-01-13T09:24:29.500Z,8.32
2023-01-13T09:27:00.462Z,8.34
2023-01-13T09:29:31.183Z,8.36
2023-01-13T09:32:01.596Z,8.40
2023-01-13T09:34:50.147Z,8.42
2023-01-13T09:37:20.785Z,8.43
2023-01-13T09:39:51.092Z,8.47
2023-01-13T09:42:45.981Z,8.49
2023-01-13T09:45:20.849Z,8.51
2023-01-13T09:47:58.592Z,8.50
2023-01-13T09:50:35.177Z,8.49
2023-01-13T09:53:11.191Z,8.48
2023-01-13T09:55:41.750Z,8.48
2023-01-13T09:58:16.694Z,8.49
2023-01-13T10:00:53.376Z,8.51
2023-01-13T10:03:27.282Z,8.56
2023-01-13T10:06:04.663Z,8.59
2023-01-13T10:08:38.757Z,8.63
2023-01-13T10:11:35.829Z,8.66
2023-01-13T10:14:16.807Z,8.70
2023-01-13T10:16:52.227Z,8.75
2023-01-13T10:19:27.585Z,8.79
2023-01-13T10:22:23.074Z,8.82
2023-01-13T10:25:20.658Z,8.85
2023-01-13T10:27:51.610Z,8.88
2023-01-13T10:30:27.481Z,8.90
2023-01-13T10:32:59.611Z,8.91
2023-01-13T10:35:52.160Z,8.92
2023-01-13T10:38:25.053Z,8.94
2023-01-13T10:40:57.851Z,8.95
2023-01-13T10:43:29.902Z,8.96
2023-01-13T10:46:04.420Z,8.96
2023-01-13T10:48:52.252Z,8.97
2023-01-13T10:51:23.169Z,8.98
2023-01-13T10:53:57.353Z,8.99
2023-01-13T10:56:29.809Z,8.97
2023-01-13T10:59:24.482Z,8.99
2023-01-13T11:02:12.979Z,8.99
2023-01-13T11:05:10.802Z,9.00
2023-01-13T11:07:41.357Z,9.01
2023-01-13T11:10:22.184Z,9.02
2023-01-13T11:13:05.345Z,9.04
2023-01-13T11:15:44.190Z,9.05
2023-01-13T11:18:25.796Z,9.07
2023-01-13T11:20:58.502Z,9.08
2023-01-13T11:23:35.343Z,9.09
2023-01-13T11:26:11.516Z,9.10
2023-01-13T11:28:49.871Z,9.10
2023-01-13T11:31:26.289Z,9.12
2023-01-13T11:34:00.757Z,9.13
2023-01-13T11:36:39.185Z,9.13
2023-01-13T11:39:20.656Z,9.14
2023-01-13T11:42:12.181Z,9.15
2023-01-13T11:44:50.151Z,9.16
2023-01-13T11:47:25.357Z,9.16
2023-01-13T11:49:55.783Z,9.15
2023-01-13T11:52:34.280Z,9.14
2023-01-13T11:55:30.406Z,9.12
2023-01-13T11:58:17.110Z,9.12
2023-01-13T12:01:03.647Z,9.12
2023-01-13T12:03:39.167Z,9.12
2023-01-13T12:06:22.683Z,9.13
2023-01-13T12:09:29.013Z,9.14
2023-01-13T12:12:20.158Z,9.15
2023-01-13T12:15:08.870Z,9.18
2023-01-13T12:17:52.396Z,9.20
2023-01-13T12:20:40.398Z,9.22
2023-01-13T12:23:19.052Z,9.22
2023-01-13T12:25:55.118Z,9.22
2023-01-13T12:28:29.263Z,9.25
2023-01-13T12:31:03.580Z,9.29
2023-01-13T12:33:47.988Z,9.32
2023-01-13T12:36:23.292Z,9.34
2023-01-13T12:38:59.334Z,9.36
2023-01-13T12:42:03.008Z,9.38
2023-01-13T12:44:33.569Z,9.38
2023-01-13T12:47:04.316Z,9.38
2023-01-13T12:49:36.506Z,9.37
2023-01-13T12:52:20.356Z,9.36
2023-01-13T12:55:22.417Z,9.33
2023-01-13T12:58:15.045Z,9.27
2023-01-13T13:01:01.968Z,9.25
2023-01-13T13:03:35.627Z,9.25
2023-01-13T13:06:10.958Z,9.25
2023-01-13T13:09:03.618Z,9.27
2023-01-13T13:12:04.437Z,9.29
2023-01-13T13:15:04.407Z,9.28
2023-01-13T13:18:01.421Z,9.30
2023-01-13T13:21:03.623Z,9.29
2023-01-13T13:24:03.034Z,9.28
2023-01-13T13:26:39.443Z,9.29
2023-01-13T13:29:23.683Z,9.29
2023-01-13T13:32:08.340Z,9.28
2023-01-13T13:34:47.675Z,9.25
2023-01-13T13:37:58.747Z,9.22
2023-01-13T13:40:51.396Z,9.17
2023-01-13T13:43:40.848Z,9.12
2023-01-13T13:46:45.236Z,9.08
2023-01-13T13:49:17.037Z,9.04
2023-01-13T13:51:55.298Z,9.01
2023-01-13T13:54:25.896Z,9.00
2023-01-13T13:56:58.095Z,8.99
2023-01-13T13:59:30.517Z,8.99
2023-01-13T14:02:03.711Z,8.99
2023-01-13T14:04:37.457Z,8.97
2023-01-13T14:07:20.749Z,8.97
2023-01-13T14:09:54.631Z,8.95
2023-01-13T14:12:27.002Z,8.92
2023-01-13T14:14:59.832Z,8.89
2023-01-13T14:17:32.026Z,8.85
2023-01-13T14:20:05.537Z,8.79
2023-01-13T14:22:36.464Z,8.73
2023-01-13T14:25:36.623Z,8.69
2023-01-13T14:28:18.230Z,8.63
2023-01-13T14:30:49.864Z,8.58
2023-01-13T14:33:24.060Z,8.51
2023-01-13T14:36:17.166Z,8.49
2023-01-13T14:38:50.012Z,8.45
2023-01-13T14:41:28.368Z,8.44
2023-01-13T14:44:01.909Z,8.43
2023-01-13T14:46:41.062Z,8.44
2023-01-13T14:49:24.328Z,8.45
2023-01-13T14:52:03.960Z,8.46
2023-01-13T14:54:48.269Z,8.47
2023-01-13T14:57:27.399Z,8.47
2023-01-13T15:00:07.963Z,8.47
2023-01-13T15:02:43.720Z,8.47
2023-01-13T15:05:33.657Z,8.47
2023-01-13T15:08:09.142Z,8.45
2023-01-13T15:10:48.773Z,8.42
2023-01-13T15:13:31.991Z,8.41
2023-01-13T15:16:05.715Z,8.40
2023-01-13T15:18:40.048Z,8.40
2023-01-13T15:21:10.878Z,8.39
2023-01-13T15:23:41.361Z,8.38
2023-01-13T15:26:22.178Z,8.35
2023-01-13T15:28:53.290Z,8.36
2023-01-13T15:31:24.665Z,8.36
2023-01-13T15:33:55.739Z,8.36
2023-01-13T15:36:29.326Z,8.35
2023-01-13T15:39:00.841Z,8.35
2023-01-13T15:41:48.397Z,8.34
2023-01-13T15:44:36.531Z,8.34
2023-01-13T15:47:10.236Z,8.32
2023-01-13T15:49:43.479Z,8.32
2023-01-13T15:52:21.377Z,8.31
2023-01-13T15:54:50.751Z,8.31
2023-01-13T15:57:25.822Z,8.31
2023-01-13T15:59:59.336Z,8.29
2023-01-13T16:02:30.998Z,8.27
2023-01-13T16:05:01.691Z,8.26
2023-01-13T16:07:32.113Z,8.24
2023-01-13T16:10:04.839Z,8.22
2023-01-13T16:12:35.378Z,8.19
2023-01-13T16:15:06.848Z,8.15
2023-01-13T16:17:38.195Z,8.10
2023-01-13T16:20:15.856Z,8.07
2023-01-13T16:22:46.374Z,8.05
2023-01-13T16:25:21.241Z,8.03
2023-01-13T16:27:52.363Z,8.01
2023-01-13T16:30:27.848Z,8.00
2023-01-13T16:32:58.596Z,8.01
2023-01-13T16:35:31.891Z,8.01
2023-01-13T16:38:02.873Z,8.02
2023-01-13T16:40:36.445Z,8.02
2023-01-13T16:43:07.125Z,8.02
2023-01-13T16:45:37.889Z,8.01
2023-01-13T16:48:16.910Z,8.01
2023-01-13T16:50:47.595Z,8.00
2023-01-13T16:53:18.102Z,7.99
2023-01-13T16:55:48.508Z,7.96
2023-01-13T16:58:21.342Z,7.97
2023-01-13T17:00:52.768Z,7.96
2023-01-13T17:03:23.655Z,7.95
2023-01-13T17:05:54.566Z,7.93
2023-01-13T17:08:25.427Z,7.91
2023-01-13T17:10:55.898Z,7.88
2023-01-13T17:13:26.673Z,7.85
2023-01-13T17:15:57.049Z,7.82
2023-01-13T17:18:27.546Z,7.79
2023-01-13T17:20:58.843Z,7.77
2023-01-13T17:23:31.469Z,7.74
2023-01-13T17:26:02.181Z,7.70
2023-01-13T17:28:33.306Z,7.66
2023-01-13T17:31:04.126Z,7.63
2023-01-13T17:33:37.135Z,7.60
2023-01-13T17:36:08.322Z,7.58
2023-01-13T17:38:38.725Z,7.56
2023-01-13T17:41:09.287Z,7.58
2023-01-13T17:43:39.733Z,7.58
2023-01-13T17:46:16.425Z,7.58
2023-01-13T17:48:47.387Z,7.57
2023-01-13T17:51:19.540Z,7.56
2023-01-13T17:53:50.290Z,7.53
2023-01-13T17:56:20.985Z,7.51
2023-01-13T17:58:51.688Z,7.50
2023-01-13T18:01:26.529Z,7.51
2023-01-13T18:03:57.088Z,7.53
2023-01-13T18:06:28.123Z,7.54
2023-01-13T18:08:59.192Z,7.55
2023-01-13T18:11:30.261Z,7.55
2023-01-13T18:14:01.216Z,7.56
2023-01-13T18:16:33.761Z,7.55
2023-01-13T18:19:22.346Z,7.54
2023-01-13T18:22:10.743Z,7.52
2023-01-13T18:24:59.289Z,7.49
2023-01-13T18:27:33.533Z,7.46
2023-01-13T18:30:06.485Z,7.43
2023-01-13T18:32:37.333Z,7.39
2023-01-13T18:35:10.737Z,7.36
2023-01-13T18:37:43.005Z,7.34
2023-01-13T18:40:15.177Z,7.31
2023-01-13T18:42:55.287Z,7.29
2023-01-13T18:45:27.327Z,7.28
2023-01-13T18:48:00.679Z,7.29
2023-01-13T18:50:31.394Z,7.30
2023-01-13T18:53:02.302Z,7.33
2023-01-13T18:55:32.706Z,7.35
2023-01-13T18:58:03.075Z,7.38
2023-01-13T19:00:37.051Z,7.40
2023-01-13T19:05:38.887Z,7.41
2023-01-13T19:08:09.926Z,7.42
2023-01-13T19:10:41.384Z,7.41
2023-01-13T19:13:13.034Z,7.40
2023-01-13T19:15:43.731Z,7.38
2023-01-13T19:18:14.910Z,7.35
2023-01-13T19:20:45.285Z,7.33
2023-01-13T19:23:16.371Z,7.30
2023-01-13T19:25:47.075Z,7.27
2023-01-13T19:28:17.815Z,7.26
2023-01-13T19:30:48.261Z,7.27
2023-01-13T19:33:19.334Z,7.28
2023-01-13T19:35:54.777Z,7.29
2023-01-13T19:38:25.921Z,7.30
2023-01-13T19:40:58.286Z,7.29
2023-01-13T19:43:46.613Z,7.28
2023-01-13T19:46:17.397Z,7.28
2023-01-13T19:48:48.177Z,7.27
2023-01-13T19:51:18.521Z,7.25
2023-01-13T19:53:49.251Z,7.24
2023-01-13T19:56:19.942Z,7.23
2023-01-13T19:58:51.599Z,7.23
2023-01-13T20:01:24.829Z,7.24
2023-01-13T20:03:55.583Z,7.24
2023-01-13T20:06:25.894Z,7.24
2023-01-13T20:08:56.260Z,7.25
2023-01-13T20:11:31.220Z,7.27
2023-01-13T20:14:03.162Z,7.28
2023-01-13T20:16:33.882Z,7.29
2023-01-13T20:19:04.400Z,7.30
2023-01-13T20:21:34.993Z,7.30
2023-01-13T20:24:05.591Z,7.30
2023-01-13T20:26:37.512Z,7.30
2023-01-13T20:29:07.935Z,7.30
2023-01-13T20:31:38.484Z,7.30
2023-01-13T20:34:09.634Z,7.31
2023-01-13T20:36:43.224Z,7.31
2023-01-13T20:39:16.943Z,7.33
2023-01-13T20:42:20.332Z,7.34
2023-01-13T20:44:50.648Z,7.36
2023-01-13T20:47:21.267Z,7.37
2023-01-13T20:49:52.125Z,7.36
2023-01-13T20:52:22.591Z,7.36
2023-01-13T20:54:52.993Z,7.36
2023-01-13T20:57:23.577Z,7.35
2023-01-13T20:59:55.354Z,7.35
2023-01-13T21:02:25.720Z,7.35
2023-01-13T21:04:56.396Z,7.35
2023-01-13T21:07:28.155Z,7.36
2023-01-13T21:09:58.886Z,7.35
2023-01-13T21:12:46.834Z,7.36
2023-01-13T21:15:20.177Z,7.37
2023-01-13T21:18:09.830Z,7.40
2023-01-13T21:20:41.453Z,7.43
2023-01-13T21:23:12.200Z,7.46
2023-01-13T21:25:43.232Z,7.48
2023-01-13T21:28:16.028Z,7.51
2023-01-13T21:30:47.256Z,7.54
2023-01-13T21:33:17.620Z,7.57
2023-01-13T21:35:48.225Z,7.59
2023-01-13T21:38:18.952Z,7.60
2023-01-13T21:40:56.343Z,7.62
2023-01-13T21:43:44.587Z,7.63
2023-01-13T21:46:30.149Z,7.64
2023-01-13T21:49:01.041Z,7.65
2023-01-13T21:51:32.155Z,7.65
2023-01-13T21:54:02.582Z,7.64
2023-01-13T21:56:33.614Z,7.62
2023-01-13T21:59:04.322Z,7.57
2023-01-13T22:01:34.803Z,7.50
2023-01-13T22:04:14.497Z,7.42
2023-01-13T22:06:44.861Z,7.33
2023-01-13T22:09:15.210Z,7.26
2023-01-13T22:11:45.554Z,7.22
2023-01-13T22:14:16.114Z,7.19
2023-01-13T22:16:49.567Z,7.19
2023-01-13T22:19:20.253Z,7.18
2023-01-13T22:21:51.291Z,7.17
2023-01-13T22:24:21.622Z,7.18
2023-01-13T22:26:52.670Z,7.18
2023-01-13T22:29:22.934Z,7.18
2023-01-13T22:31:53.630Z,7.19
2023-01-13T22:34:24.079Z,7.19
2023-01-13T22:36:54.394Z,7.18
2023-01-13T22:39:24.731Z,7.17
2023-01-13T22:41:55.607Z,7.17
2023-01-13T22:44:26.882Z,7.17
2023-01-13T22:46:57.222Z,7.18
2023-01-13T22:49:27.948Z,7.19
2023-01-13T22:51:58.691Z,7.22
2023-01-13T22:54:29.356Z,7.24
2023-01-13T22:56:59.912Z,7.27
2023-01-13T22:59:31.811Z,7.29
2023-01-13T23:02:02.941Z,7.29
2023-01-13T23:04:33.674Z,7.30
2023-01-13T23:07:04.029Z,7.31
2023-01-13T23:09:34.489Z,7.29
2023-01-13T23:12:05.236Z,7.26
2023-01-13T23:14:35.704Z,7.24
2023-01-13T23:17:07.061Z,7.22
2023-01-13T23:19:37.580Z,7.21
2023-01-13T23:22:07.885Z,7.19
2023-01-13T23:24:38.860Z,7.18
2023-01-13T23:27:09.563Z,7.16
2023-01-13T23:29:40.351Z,7.16
2023-01-13T23:32:11.325Z,7.16
2023-01-13T23:34:41.677Z,7.14
2023-01-13T23:37:12.561Z,7.12
2023-01-13T23:39:42.851Z,7.08
2023-01-13T23:42:13.163Z,7.06
2023-01-13T23:44:43.777Z,7.05
2023-01-13T23:47:14.428Z,7.04
2023-01-13T23:49:44.744Z,7.03
2023-01-13T23:52:15.093Z,7.01
2023-01-13T23:54:45.713Z,7.00
2023-01-13T23:57:16.366Z,6.98
2023-01-13T23:59:46.842Z,6.94
